createdAt,value
2016-05-08T00:00:54.885Z,14.5
2016-05-08T00:01:55.090Z,14.5
2016-05-08T00:02:55.109Z,14.47
2016-05-08T00:03:55.158Z,14.46
2016-05-08T00:04:55.208Z,14.47
2016-05-08T00:05:55.242Z,14.38
2016-05-08T00:06:55.120Z,14.39
2016-05-08T00:07:55.341Z,14.47
2016-05-08T00:08:55.390Z,14.35
2016-05-08T00:09:55.456Z,14.39
2016-05-08T00:10:55.490Z,14.46
2016-05-08T00:11:55.492Z,14.46
2016-05-08T00:12:55.448Z,14.38
2016-05-08T00:13:55.576Z,14.42
2016-05-08T00:14:55.609Z,14.42
2016-05-08T00:15:55.675Z,14.42
2016-05-08T00:16:55.756Z,14.42
2016-05-08T00:17:55.743Z,14.43
2016-05-08T00:18:55.777Z,14.43
2016-05-08T00:19:55.842Z,14.31
2016-05-08T00:20:55.891Z,14.31
2016-05-08T00:21:55.753Z,14.31
2016-05-08T00:22:55.789Z,14.28
2016-05-08T00:23:55.853Z,14.31
2016-05-08T00:24:56.035Z,14.25
2016-05-08T00:25:56.084Z,14.25
2016-05-08T00:26:55.946Z,14.24
2016-05-08T00:27:56.542Z,14.31
2016-05-08T00:28:56.186Z,14.34
2016-05-08T00:29:56.079Z,14.28
2016-05-08T00:30:56.285Z,14.27
2016-05-08T00:31:56.319Z,14.29
2016-05-08T00:32:56.353Z,14.2
2016-05-08T00:33:56.245Z,14.19
2016-05-08T00:34:56.498Z,14.24
2016-05-08T00:35:56.501Z,14.12
2016-05-08T00:36:56.520Z,14.1
2016-05-08T00:37:56.398Z,14.09
2016-05-08T00:38:56.650Z,14.13
2016-05-08T00:39:56.637Z,14.09
2016-05-08T00:40:56.530Z,14.07
2016-05-08T00:41:56.736Z,13.95
2016-05-08T00:42:57.692Z,13.96
2016-05-08T00:43:56.820Z,13.94
2016-05-08T00:44:56.853Z,13.94
2016-05-08T00:45:56.919Z,13.89
2016-05-08T00:46:56.922Z,13.92
2016-05-08T00:47:56.987Z,13.84
2016-05-08T00:48:57.021Z,13.8
2016-05-08T00:49:57.055Z,13.87
2016-05-08T00:50:57.104Z,13.79
2016-05-08T00:51:57.138Z,13.79
2016-05-08T00:52:57.234Z,13.76
2016-05-08T00:53:57.222Z,13.76
2016-05-08T00:54:57.255Z,13.69
2016-05-08T00:55:57.165Z,13.73
2016-05-08T00:56:57.385Z,13.7
2016-05-08T00:57:57.592Z,13.7
2016-05-08T00:58:57.437Z,13.71
2016-05-08T00:59:57.519Z,13.69
2016-05-08T01:00:57.522Z,13.69
2016-05-08T01:01:57.556Z,13.65
2016-05-08T01:02:57.417Z,13.67
2016-05-08T01:03:57.624Z,13.69
2016-05-08T01:04:57.532Z,13.67
2016-05-08T01:05:57.707Z,13.61
2016-05-08T01:06:57.804Z,13.62
2016-05-08T01:07:57.650Z,13.58
2016-05-08T01:08:57.824Z,13.59
2016-05-08T01:09:57.889Z,13.58
2016-05-08T01:10:57.752Z,13.51
2016-05-08T01:11:57.958Z,13.52
2016-05-08T01:12:58.164Z,13.46
2016-05-08T01:13:58.072Z,13.32
2016-05-08T01:14:58.106Z,13.4
2016-05-08T01:15:58.125Z,13.32
2016-05-08T01:16:58.175Z,13.38
2016-05-08T01:17:58.224Z,13.24
2016-05-08T01:18:58.274Z,13.36
2016-05-08T01:19:58.291Z,13.22
2016-05-08T01:20:58.216Z,13.22
2016-05-08T01:21:58.375Z,13.37
2016-05-08T01:22:58.410Z,13.18
2016-05-08T01:23:58.443Z,13.29
2016-05-08T01:24:58.337Z,13.21
2016-05-08T01:25:58.527Z,13.21
2016-05-08T01:26:58.421Z,13.21
2016-05-08T01:27:58.626Z,13.2
2016-05-08T01:28:58.692Z,13.17
2016-05-08T01:29:58.710Z,13.11
2016-05-08T01:30:58.728Z,13.17
2016-05-08T01:31:58.762Z,13.14
2016-05-08T01:32:58.844Z,13.04
2016-05-08T01:33:58.861Z,12.97
2016-05-08T01:34:58.739Z,12.95
2016-05-08T01:35:58.929Z,12.99
2016-05-08T01:36:59.026Z,12.88
2016-05-08T01:37:58.700Z,12.81
2016-05-08T01:38:59.047Z,12.88
2016-05-08T01:39:59.096Z,12.88
2016-05-08T01:40:58.974Z,12.84
2016-05-08T01:41:59.164Z,12.77
2016-05-08T01:42:59.464Z,12.79
2016-05-08T01:43:59.279Z,12.82
2016-05-08T01:44:59.173Z,12.81
2016-05-08T01:45:59.362Z,12.74
2016-05-08T01:46:59.381Z,12.77
2016-05-08T01:47:59.478Z,12.79
2016-05-08T01:48:59.464Z,12.66
2016-05-08T01:49:59.514Z,12.66
2016-05-08T01:50:59.611Z,12.63
2016-05-08T01:51:59.581Z,12.59
2016-05-08T01:52:59.662Z,12.62
2016-05-08T01:53:59.665Z,12.6
2016-05-08T01:54:59.590Z,12.63
2016-05-08T01:55:59.749Z,12.63
2016-05-08T01:56:59.783Z,12.66
2016-05-08T01:58:00.191Z,12.59
2016-05-08T01:58:59.866Z,12.63
2016-05-08T01:59:59.900Z,12.7
2016-05-08T02:00:59.950Z,12.66
2016-05-08T02:02:00.016Z,12.64
2016-05-08T02:03:00.049Z,12.57
2016-05-08T02:04:00.051Z,12.67
2016-05-08T02:05:00.101Z,12.63
2016-05-08T02:06:00.151Z,12.62
2016-05-08T02:07:00.185Z,12.62
2016-05-08T02:08:00.219Z,12.52
2016-05-08T02:09:00.299Z,12.42
2016-05-08T02:10:00.176Z,12.52
2016-05-08T02:11:00.352Z,12.41
2016-05-08T02:12:00.230Z,12.42
2016-05-08T02:13:00.888Z,12.52
2016-05-08T02:14:00.329Z,12.41
2016-05-08T02:15:00.503Z,12.41
2016-05-08T02:16:00.537Z,12.41
2016-05-08T02:17:00.601Z,12.45
2016-05-08T02:18:00.637Z,12.38
2016-05-08T02:19:00.357Z,12.44
2016-05-08T02:20:00.548Z,12.26
2016-05-08T02:21:00.784Z,12.21
2016-05-08T02:22:00.787Z,12.21
2016-05-08T02:23:00.665Z,12.29
2016-05-08T02:24:00.887Z,12.26
2016-05-08T02:25:00.920Z,12.2
2016-05-08T02:26:00.955Z,12.23
2016-05-08T02:27:00.988Z,12.26
2016-05-08T02:28:00.928Z,12.2
2016-05-08T02:29:01.072Z,12.16
2016-05-08T02:30:01.106Z,12.21
2016-05-08T02:31:01.155Z,12.16
2016-05-08T02:32:01.189Z,12.12
2016-05-08T02:33:01.239Z,12.19
2016-05-08T02:34:01.288Z,12.16
2016-05-08T02:35:01.354Z,12.16
2016-05-08T02:36:01.357Z,12.2
2016-05-08T02:37:01.390Z,12.2
2016-05-08T02:38:01.455Z,12.21
2016-05-08T02:39:01.474Z,12.23
2016-05-08T02:40:01.507Z,12.15
2016-05-08T02:41:01.385Z,12.3
2016-05-08T02:42:01.656Z,12.24
2016-05-08T02:43:01.689Z,12.2
2016-05-08T02:44:01.801Z,12.16
2016-05-08T02:45:01.884Z,12.16
2016-05-08T02:46:02.027Z,12.19
2016-05-08T02:47:02.026Z,12.16
2016-05-08T02:48:02.078Z,12.24
2016-05-08T02:49:01.988Z,12.2
2016-05-08T02:50:02.196Z,12.06
2016-05-08T02:51:02.262Z,12.09
2016-05-08T02:52:02.306Z,12.15
2016-05-08T02:53:02.393Z,11.99
2016-05-08T02:54:02.403Z,11.9
2016-05-08T02:55:02.458Z,11.93
2016-05-08T02:56:02.372Z,11.99
2016-05-08T02:57:02.395Z,11.96
2016-05-08T02:58:02.618Z,11.87
2016-05-08T02:59:02.623Z,11.82
2016-05-08T03:00:02.675Z,11.89
2016-05-08T03:01:02.399Z,11.9
2016-05-08T03:02:02.747Z,11.83
2016-05-08T03:03:02.640Z,11.89
2016-05-08T03:04:02.831Z,11.86
2016-05-08T03:05:02.772Z,11.78
2016-05-08T03:06:02.933Z,11.89
2016-05-08T03:07:02.982Z,11.82
2016-05-08T03:08:03.017Z,11.93
2016-05-08T03:09:02.879Z,11.87
2016-05-08T03:10:03.085Z,11.89
2016-05-08T03:11:03.198Z,11.9
2016-05-08T03:12:03.169Z,11.87
2016-05-08T03:13:03.344Z,11.87
2016-05-08T03:14:03.237Z,11.83
2016-05-08T03:15:03.334Z,11.82
2016-05-08T03:16:03.320Z,11.8
2016-05-08T03:17:03.355Z,11.8
2016-05-08T03:18:03.388Z,11.82
2016-05-08T03:19:03.313Z,11.72
2016-05-08T03:20:03.315Z,11.71
2016-05-08T03:21:03.507Z,11.71
2016-05-08T03:22:03.556Z,11.8
2016-05-08T03:23:03.590Z,11.75
2016-05-08T03:24:03.623Z,11.83
2016-05-08T03:25:03.689Z,11.8
2016-05-08T03:26:03.597Z,11.8
2016-05-08T03:27:03.742Z,11.85
2016-05-08T03:28:03.790Z,11.85
2016-05-08T03:29:03.825Z,11.78
2016-05-08T03:30:03.905Z,11.71
2016-05-08T03:31:03.909Z,11.8
2016-05-08T03:32:03.785Z,11.82
2016-05-08T03:33:04.008Z,11.83
2016-05-08T03:34:04.025Z,11.7
2016-05-08T03:35:03.918Z,11.67
2016-05-08T03:36:04.109Z,11.7
2016-05-08T03:37:04.189Z,11.71
2016-05-08T03:38:04.239Z,11.67
2016-05-08T03:39:04.226Z,11.71
2016-05-08T03:40:04.276Z,11.67
2016-05-08T03:41:04.310Z,11.64
2016-05-08T03:42:04.343Z,11.62
2016-05-08T03:43:04.410Z,11.67
2016-05-08T03:44:04.458Z,11.65
2016-05-08T03:45:04.461Z,11.65
2016-05-08T03:46:04.354Z,11.62
2016-05-08T03:47:04.545Z,11.65
2016-05-08T03:48:04.579Z,11.64
2016-05-08T03:49:04.629Z,11.7
2016-05-08T03:50:04.662Z,11.62
2016-05-08T03:51:04.727Z,11.62
2016-05-08T03:52:04.620Z,11.61
2016-05-08T03:53:04.795Z,11.64
2016-05-08T03:54:04.814Z,11.64
2016-05-08T03:55:04.910Z,11.61
2016-05-08T03:56:04.897Z,11.61
2016-05-08T03:57:04.775Z,11.65
2016-05-08T03:58:05.231Z,11.62
2016-05-08T03:59:05.030Z,11.56
2016-05-08T04:00:05.064Z,11.59
2016-05-08T04:01:05.129Z,11.56
2016-05-08T04:02:04.992Z,11.62
2016-05-08T04:03:05.181Z,11.65
2016-05-08T04:04:05.059Z,11.59
2016-05-08T04:05:05.280Z,11.54
2016-05-08T04:06:05.314Z,11.54
2016-05-08T04:07:05.349Z,11.53
2016-05-08T04:08:05.383Z,11.53
2016-05-08T04:09:05.400Z,11.52
2016-05-08T04:10:05.482Z,11.44
2016-05-08T04:11:05.344Z,11.49
2016-05-08T04:12:05.566Z,11.46
2016-05-08T04:13:05.427Z,11.47
2016-05-08T04:14:05.461Z,11.43
2016-05-08T04:15:05.666Z,11.47
2016-05-08T04:16:05.732Z,11.44
2016-05-08T04:17:05.735Z,11.44
2016-05-08T04:18:05.629Z,11.5
2016-05-08T04:19:05.662Z,11.41
2016-05-08T04:20:11.274Z,11.53
2016-05-08T04:21:05.887Z,11.5
2016-05-08T04:22:05.780Z,11.59
2016-05-08T04:23:05.985Z,11.68
2016-05-08T04:24:06.003Z,11.61
2016-05-08T04:25:06.053Z,11.71
2016-05-08T04:26:06.087Z,11.65
2016-05-08T04:27:06.168Z,11.67
2016-05-08T04:28:06.171Z,11.64
2016-05-08T04:29:06.220Z,11.72
2016-05-08T04:30:06.253Z,11.67
2016-05-08T04:31:06.288Z,11.65
2016-05-08T04:32:06.338Z,11.64
2016-05-08T04:33:06.387Z,11.7
2016-05-08T04:34:06.405Z,11.74
2016-05-08T04:35:06.455Z,11.68
2016-05-08T04:36:06.488Z,11.75
2016-05-08T04:37:06.398Z,11.82
2016-05-08T04:38:06.557Z,11.77
2016-05-08T04:39:06.606Z,11.8
2016-05-08T04:40:06.655Z,11.78
2016-05-08T04:41:06.722Z,11.97
2016-05-08T04:42:06.724Z,11.93
2016-05-08T04:43:07.116Z,11.97
2016-05-08T04:44:06.823Z,12.05
2016-05-08T04:45:06.842Z,12.02
2016-05-08T04:46:06.874Z,12.01
2016-05-08T04:47:06.769Z,12.08
2016-05-08T04:48:06.974Z,12.21
2016-05-08T04:49:06.867Z,12.16
2016-05-08T04:50:07.042Z,12.21
2016-05-08T04:51:07.093Z,12.31
2016-05-08T04:52:07.173Z,12.29
2016-05-08T04:53:07.004Z,12.26
2016-05-08T04:54:07.209Z,12.3
2016-05-08T04:55:07.259Z,12.42
2016-05-08T04:56:07.136Z,12.49
2016-05-08T04:57:07.343Z,12.39
2016-05-08T04:58:07.532Z,12.44
2016-05-08T04:59:07.441Z,12.52
2016-05-08T05:00:07.444Z,12.52
2016-05-08T05:01:07.478Z,12.6
2016-05-08T05:02:07.543Z,12.59
2016-05-08T05:03:07.578Z,12.6
2016-05-08T05:04:07.611Z,12.64
2016-05-08T05:05:07.645Z,12.69
2016-05-08T05:06:07.725Z,12.79
2016-05-08T05:07:07.713Z,12.78
2016-05-08T05:08:07.763Z,12.82
2016-05-08T05:09:07.828Z,12.88
2016-05-08T05:10:07.861Z,12.96
2016-05-08T05:11:07.880Z,12.93
2016-05-08T05:12:07.930Z,12.99
2016-05-08T05:13:08.026Z,12.97
2016-05-08T05:14:07.997Z,13.03
2016-05-08T05:15:07.891Z,13.04
2016-05-08T05:16:08.096Z,13.11
2016-05-08T05:17:08.177Z,13.15
2016-05-08T05:18:08.165Z,13.06
2016-05-08T05:19:08.198Z,13.22
2016-05-08T05:20:08.248Z,13.2
2016-05-08T05:21:08.126Z,13.3
2016-05-08T05:22:08.160Z,13.36
2016-05-08T05:23:08.365Z,13.22
2016-05-08T05:24:08.274Z,13.29
2016-05-08T05:25:08.449Z,13.27
2016-05-08T05:26:08.327Z,13.37
2016-05-08T05:27:08.517Z,13.38
2016-05-08T05:28:08.707Z,13.43
2016-05-08T05:29:08.600Z,13.47
2016-05-08T05:30:08.493Z,13.54
2016-05-08T05:31:08.715Z,13.55
2016-05-08T05:32:08.749Z,13.59
2016-05-08T05:33:08.767Z,13.56
2016-05-08T05:34:08.801Z,13.7
2016-05-08T05:35:08.726Z,13.65
2016-05-08T05:36:08.901Z,13.73
2016-05-08T05:37:08.778Z,13.76
2016-05-08T05:38:08.968Z,13.8
2016-05-08T05:39:09.033Z,13.88
2016-05-08T05:40:08.755Z,13.88
2016-05-08T05:41:09.086Z,13.88
2016-05-08T05:42:08.995Z,13.94
2016-05-08T05:43:09.216Z,13.95
2016-05-08T05:44:09.202Z,14.02
2016-05-08T05:45:09.252Z,14.01
2016-05-08T05:46:09.194Z,14.04
2016-05-08T05:47:09.352Z,14.12
2016-05-08T05:48:09.230Z,14.06
2016-05-08T05:49:09.419Z,14.16
2016-05-08T05:50:09.469Z,14.1
2016-05-08T05:51:09.503Z,14.17
2016-05-08T05:52:09.397Z,14.17
2016-05-08T05:53:09.571Z,14.21
2016-05-08T05:54:09.480Z,14.2
2016-05-08T05:55:09.498Z,14.27
2016-05-08T05:56:09.548Z,14.34
2016-05-08T05:57:09.440Z,14.17
2016-05-08T05:58:09.787Z,14.27
2016-05-08T05:59:09.821Z,14.27
2016-05-08T06:00:09.871Z,14.34
2016-05-08T06:01:09.967Z,14.28
2016-05-08T06:02:09.954Z,14.28
2016-05-08T06:03:09.832Z,14.31
2016-05-08T06:04:10.039Z,14.37
2016-05-08T06:05:10.073Z,14.42
2016-05-08T06:06:10.106Z,14.44
2016-05-08T06:07:10.155Z,14.5
2016-05-08T06:08:10.252Z,14.54
2016-05-08T06:09:10.255Z,14.47
2016-05-08T06:10:10.132Z,14.6
2016-05-08T06:11:10.308Z,14.62
2016-05-08T06:12:10.356Z,14.69
2016-05-08T06:13:10.797Z,14.74
2016-05-08T06:14:10.441Z,14.72
2016-05-08T06:15:10.505Z,14.8
2016-05-08T06:16:10.508Z,14.87
2016-05-08T06:17:10.573Z,14.86
2016-05-08T06:18:10.607Z,14.94
2016-05-08T06:19:10.532Z,14.91
2016-05-08T06:20:10.535Z,14.95
2016-05-08T06:21:10.724Z,15.01
2016-05-08T06:22:10.774Z,15.11
2016-05-08T06:23:10.854Z,15.11
2016-05-08T06:24:10.842Z,15.06
2016-05-08T06:25:10.891Z,15.09
2016-05-08T06:26:10.940Z,15.17
2016-05-08T06:27:10.991Z,15.17
2016-05-08T06:28:11.056Z,15.2
2016-05-08T06:29:10.902Z,15.24
2016-05-08T06:30:11.108Z,15.36
2016-05-08T06:31:11.142Z,15.36
2016-05-08T06:32:11.176Z,15.38
2016-05-08T06:33:11.241Z,15.45
2016-05-08T06:34:11.275Z,15.45
2016-05-08T06:35:11.309Z,15.46
2016-05-08T06:36:11.343Z,15.48
2016-05-08T06:37:11.392Z,15.51
2016-05-08T06:38:11.301Z,15.57
2016-05-08T06:39:11.507Z,15.63
2016-05-08T06:40:11.510Z,15.63
2016-05-08T06:41:11.606Z,15.72
2016-05-08T06:42:11.625Z,15.7
2016-05-08T06:43:11.987Z,15.74
2016-05-08T06:44:11.661Z,15.78
2016-05-08T06:45:11.727Z,15.85
2016-05-08T06:46:11.761Z,15.84
2016-05-08T06:47:11.810Z,15.86
2016-05-08T06:48:11.735Z,15.92
2016-05-08T06:49:11.753Z,16.01
2016-05-08T06:50:11.927Z,15.93
2016-05-08T06:51:11.977Z,16.04
2016-05-08T06:52:11.699Z,16.14
2016-05-08T06:53:11.921Z,16.09
2016-05-08T06:54:12.094Z,16.12
2016-05-08T06:55:12.160Z,16.14
2016-05-08T06:56:12.193Z,16.18
2016-05-08T06:57:12.087Z,16.25
2016-05-08T06:58:12.104Z,16.18
2016-05-08T06:59:12.154Z,16.16
2016-05-08T07:00:12.189Z,16.23
2016-05-08T07:01:12.395Z,16.26
2016-05-08T07:02:12.445Z,16.35
2016-05-08T07:03:12.509Z,16.38
2016-05-08T07:04:12.512Z,16.37
2016-05-08T07:05:12.562Z,16.53
2016-05-08T07:06:12.611Z,16.5
2016-05-08T07:07:12.676Z,16.55
2016-05-08T07:08:12.710Z,16.58
2016-05-08T07:09:12.728Z,16.56
2016-05-08T07:10:12.778Z,16.68
2016-05-08T07:11:12.811Z,16.65
2016-05-08T07:12:12.705Z,16.8
2016-05-08T07:13:13.145Z,16.8
2016-05-08T07:14:12.961Z,16.88
2016-05-08T07:15:12.980Z,16.85
2016-05-08T07:16:13.013Z,16.9
2016-05-08T07:17:13.094Z,16.89
2016-05-08T07:18:12.940Z,16.98
2016-05-08T07:19:13.161Z,16.98
2016-05-08T07:20:13.196Z,16.9
2016-05-08T07:21:13.276Z,16.96
2016-05-08T07:22:13.280Z,17.04
2016-05-08T07:23:13.313Z,17.06
2016-05-08T07:24:13.207Z,17.13
2016-05-08T07:25:13.272Z,17.1
2016-05-08T07:26:13.446Z,17.15
2016-05-08T07:27:13.512Z,17.18
2016-05-08T07:28:13.296Z,17.29
2016-05-08T07:29:13.595Z,17.36
2016-05-08T07:30:13.612Z,17.41
2016-05-08T07:31:13.679Z,17.35
2016-05-08T07:32:13.712Z,17.46
2016-05-08T07:33:13.731Z,17.41
2016-05-08T07:34:13.781Z,17.4
2016-05-08T07:35:13.861Z,17.54
2016-05-08T07:36:13.879Z,17.48
2016-05-08T07:37:13.757Z,17.62
2016-05-08T07:38:13.948Z,17.64
2016-05-08T07:39:14.044Z,17.66
2016-05-08T07:40:14.030Z,17.7
2016-05-08T07:41:13.925Z,17.71
2016-05-08T07:42:14.114Z,17.87
2016-05-08T07:43:14.211Z,17.84
2016-05-08T07:44:14.041Z,17.91
2016-05-08T07:45:14.247Z,17.87
2016-05-08T07:46:14.297Z,17.99
2016-05-08T07:47:14.191Z,17.97
2016-05-08T07:48:14.396Z,17.99
2016-05-08T07:49:14.413Z,18.09
2016-05-08T07:50:14.494Z,18.09
2016-05-08T07:51:14.529Z,18.07
2016-05-08T07:52:14.235Z,18.09
2016-05-08T07:53:14.628Z,18.18
2016-05-08T07:54:14.630Z,18.18
2016-05-08T07:55:14.712Z,18.13
2016-05-08T07:56:14.730Z,18.19
2016-05-08T07:57:14.810Z,18.15
2016-05-08T07:58:15.673Z,18.21
2016-05-08T07:59:14.848Z,18.29
2016-05-08T08:00:14.912Z,18.27
2016-05-08T08:01:14.946Z,18.28
2016-05-08T08:02:14.668Z,18.33
2016-05-08T08:03:15.014Z,18.37
2016-05-08T08:04:15.064Z,18.36
2016-05-08T08:05:15.098Z,18.4
2016-05-08T08:06:15.132Z,18.37
2016-05-08T08:07:15.197Z,18.4
2016-05-08T08:08:15.231Z,18.43
2016-05-08T08:09:15.265Z,18.44
2016-05-08T08:10:15.330Z,18.44
2016-05-08T08:11:15.239Z,18.47
2016-05-08T08:12:15.429Z,18.52
2016-05-08T08:13:15.447Z,18.5
2016-05-08T08:14:15.497Z,18.61
2016-05-08T08:15:15.562Z,18.57
2016-05-08T08:16:15.581Z,18.61
2016-05-08T08:17:15.614Z,18.64
2016-05-08T08:18:15.524Z,18.64
2016-05-08T08:19:15.698Z,18.64
2016-05-08T08:20:15.747Z,18.68
2016-05-08T08:21:15.813Z,18.72
2016-05-08T08:22:15.831Z,18.77
2016-05-08T08:23:15.724Z,18.79
2016-05-08T08:24:15.930Z,18.79
2016-05-08T08:25:15.980Z,18.84
2016-05-08T08:26:16.013Z,18.8
2016-05-08T08:27:16.048Z,18.83
2016-05-08T08:28:16.097Z,18.86
2016-05-08T08:29:16.194Z,18.9
2016-05-08T08:30:16.181Z,18.92
2016-05-08T08:31:16.215Z,18.95
2016-05-08T08:32:16.249Z,18.91
2016-05-08T08:33:16.298Z,19.01
2016-05-08T08:34:16.363Z,19.05
2016-05-08T08:35:16.256Z,19.11
2016-05-08T08:36:16.431Z,19.05
2016-05-08T08:37:16.309Z,19.1
2016-05-08T08:38:16.531Z,19.13
2016-05-08T08:39:16.408Z,19.17
2016-05-08T08:40:16.614Z,19.14
2016-05-08T08:41:16.648Z,19.25
2016-05-08T08:42:16.698Z,19.24
2016-05-08T08:43:16.591Z,19.23
2016-05-08T08:44:16.780Z,19.24
2016-05-08T08:45:16.830Z,19.31
2016-05-08T08:46:16.911Z,19.33
2016-05-08T08:47:16.914Z,19.29
2016-05-08T08:48:16.979Z,19.25
2016-05-08T08:49:16.997Z,19.35
2016-05-08T08:50:17.031Z,19.33
2016-05-08T08:51:17.081Z,19.43
2016-05-08T08:52:17.115Z,19.4
2016-05-08T08:53:17.180Z,19.38
2016-05-08T08:54:17.213Z,19.46
2016-05-08T08:55:16.951Z,19.48
2016-05-08T08:56:17.313Z,19.48
2016-05-08T08:57:17.362Z,19.54
2016-05-08T08:58:17.241Z,19.51
2016-05-08T08:59:17.430Z,19.6
2016-05-08T09:00:17.480Z,19.65
2016-05-08T09:01:17.530Z,19.78
2016-05-08T09:02:17.563Z,19.79
2016-05-08T09:03:17.598Z,19.73
2016-05-08T09:04:17.522Z,19.72
2016-05-08T09:05:17.681Z,19.73
2016-05-08T09:06:17.731Z,19.9
2016-05-08T09:07:17.780Z,19.84
2016-05-08T09:08:17.862Z,19.95
2016-05-08T09:09:17.864Z,19.93
2016-05-08T09:10:17.913Z,19.98
2016-05-08T09:11:18.010Z,20.02
2016-05-08T09:12:17.981Z,20
2016-05-08T09:13:17.734Z,20.16
2016-05-08T09:14:18.080Z,20.21
2016-05-08T09:15:18.177Z,20.21
2016-05-08T09:16:17.898Z,20.25
2016-05-08T09:17:18.213Z,20.24
2016-05-08T09:18:18.278Z,20.35
2016-05-08T09:19:18.296Z,20.46
2016-05-08T09:20:18.347Z,20.46
2016-05-08T09:21:18.240Z,20.47
2016-05-08T09:22:18.446Z,20.56
2016-05-08T09:23:18.339Z,20.59
2016-05-08T09:24:18.513Z,20.59
2016-05-08T09:25:18.594Z,20.74
2016-05-08T09:26:18.472Z,20.71
2016-05-08T09:27:18.646Z,20.79
2016-05-08T09:28:18.712Z,20.76
2016-05-08T09:29:18.808Z,20.86
2016-05-08T09:30:18.780Z,20.98
2016-05-08T09:31:18.829Z,21.01
2016-05-08T09:32:18.894Z,20.98
2016-05-08T09:33:18.756Z,21.05
2016-05-08T09:34:18.963Z,21.17
2016-05-08T09:35:19.012Z,21.21
2016-05-08T09:36:19.045Z,21.34
2016-05-08T09:37:19.095Z,21.39
2016-05-08T09:38:19.145Z,21.41
2016-05-08T09:39:19.195Z,21.44
2016-05-08T09:40:19.275Z,21.54
2016-05-08T09:41:19.168Z,21.6
2016-05-08T09:42:19.156Z,21.63
2016-05-08T09:43:19.377Z,21.67
2016-05-08T09:44:19.411Z,21.75
2016-05-08T09:45:19.444Z,21.71
2016-05-08T09:46:19.494Z,21.78
2016-05-08T09:47:19.576Z,21.88
2016-05-08T09:48:19.609Z,21.85
2016-05-08T09:49:19.628Z,21.85
2016-05-08T09:50:19.692Z,21.97
2016-05-08T09:51:19.727Z,21.94
2016-05-08T09:52:19.761Z,21.98
2016-05-08T09:53:19.669Z,21.99
2016-05-08T09:54:19.719Z,22.09
2016-05-08T09:55:19.768Z,22.17
2016-05-08T09:56:19.944Z,22.17
2016-05-08T09:57:20.024Z,22.27
2016-05-08T09:58:20.433Z,22.23
2016-05-08T09:59:20.077Z,22.39
2016-05-08T10:00:20.126Z,22.41
2016-05-08T10:01:20.176Z,22.46
2016-05-08T10:02:20.224Z,22.53
2016-05-08T10:03:20.274Z,22.53
2016-05-08T10:04:20.340Z,22.54
2016-05-08T10:05:20.358Z,22.6
2016-05-08T10:06:20.392Z,22.72
2016-05-08T10:07:20.442Z,22.84
2016-05-08T10:08:20.554Z,22.97
2016-05-08T10:09:20.212Z,23.09
2016-05-08T10:10:20.590Z,23.24
2016-05-08T10:11:20.655Z,23.12
2016-05-08T10:12:20.720Z,23.27
2016-05-08T10:13:20.568Z,23.32
2016-05-08T10:14:20.616Z,23.35
2016-05-08T10:15:20.839Z,23.5
2016-05-08T10:16:20.856Z,23.53
2016-05-08T10:17:20.765Z,23.58
2016-05-08T10:18:20.956Z,23.71
2016-05-08T10:19:20.708Z,23.92
2016-05-08T10:20:21.055Z,24.17
2016-05-08T10:21:21.120Z,24.22
2016-05-08T10:22:21.185Z,24.39
2016-05-08T10:23:21.628Z,24.71
2016-05-08T10:24:21.264Z,24.91
2016-05-08T10:25:21.314Z,25.2
2016-05-08T10:26:21.410Z,25.68
2016-05-08T10:27:21.428Z,26.22
2016-05-08T10:28:21.696Z,26.96
2016-05-08T10:29:21.558Z,27.79
2016-05-08T10:30:21.624Z,28.51
2016-05-08T10:31:21.658Z,29.26
2016-05-08T10:32:21.691Z,30.07
2016-05-08T10:33:21.819Z,30.94
2016-05-08T10:34:34.619Z,32.02
2016-05-08T10:35:21.871Z,32.57
2016-05-08T10:36:21.999Z,33.41
2016-05-08T10:37:22.017Z,33.83
2016-05-08T10:38:22.067Z,33.67
2016-05-08T10:39:22.116Z,33.27
2016-05-08T10:40:22.212Z,32.55
2016-05-08T10:41:22.231Z,31.87
2016-05-08T10:42:22.281Z,31.17
2016-05-08T10:43:22.627Z,30.57
2016-05-08T10:44:22.395Z,30.54
2016-05-08T10:45:22.445Z,31.17
2016-05-08T10:46:22.495Z,32.17
2016-05-08T10:47:22.560Z,33.36
2016-05-08T10:48:22.609Z,34.7
2016-05-08T10:49:22.675Z,35.82
2016-05-08T10:50:22.787Z,36.67
2016-05-08T10:51:22.774Z,36.45
2016-05-08T10:52:22.855Z,35.63
2016-05-08T10:53:22.936Z,34.86
2016-05-08T10:54:22.828Z,34
2016-05-08T10:55:22.878Z,33.04
2016-05-08T10:56:23.069Z,32.7
2016-05-08T10:57:23.165Z,32.62
2016-05-08T10:58:23.058Z,32.39
2016-05-08T10:59:23.233Z,31.93
2016-05-08T11:00:23.127Z,31.38
2016-05-08T11:01:23.019Z,31.06
2016-05-08T11:02:23.397Z,30.46
2016-05-08T11:03:23.305Z,29.89
2016-05-08T11:04:23.371Z,29.44
2016-05-08T11:05:23.560Z,28.95
2016-05-08T11:06:23.438Z,28.47
2016-05-08T11:07:23.489Z,28.07
2016-05-08T11:08:23.585Z,27.59
2016-05-08T11:09:23.759Z,27.33
2016-05-08T11:10:23.793Z,27.06
2016-05-08T11:11:23.874Z,26.89
2016-05-08T11:12:23.893Z,26.67
2016-05-08T11:13:23.957Z,26.94
2016-05-08T11:14:24.054Z,27.54
2016-05-08T11:15:24.088Z,27.84
2016-05-08T11:16:24.091Z,28.16
2016-05-08T11:17:24.157Z,28.28
2016-05-08T11:18:24.237Z,28.4
2016-05-08T11:19:24.271Z,28.6
2016-05-08T11:20:24.305Z,28.72
2016-05-08T11:21:24.370Z,28.72
2016-05-08T11:22:24.466Z,28.58
2016-05-08T11:23:24.453Z,28.47
2016-05-08T11:24:24.503Z,28.23
2016-05-08T11:25:24.584Z,27.98
2016-05-08T11:26:24.602Z,27.8
2016-05-08T11:27:24.667Z,27.71
2016-05-08T11:28:24.952Z,28.07
2016-05-08T11:29:24.797Z,28.35
2016-05-08T11:30:24.847Z,28.38
2016-05-08T11:31:24.865Z,29.1
2016-05-08T11:32:24.916Z,29.41
2016-05-08T11:33:24.997Z,29.53
2016-05-08T11:34:25.014Z,30.09
2016-05-08T11:35:25.064Z,31.08
2016-05-08T11:36:25.176Z,32.1
2016-05-08T11:37:25.163Z,33.27
2016-05-08T11:38:25.229Z,34.07
2016-05-08T11:39:25.121Z,34.42
2016-05-08T11:40:25.374Z,34.5
2016-05-08T11:41:25.237Z,34.54
2016-05-08T11:42:25.270Z,34.54
2016-05-08T11:43:25.538Z,34.35
2016-05-08T11:44:25.432Z,33.94
2016-05-08T11:45:25.606Z,33.63
2016-05-08T11:46:25.656Z,33.64
2016-05-08T11:47:25.705Z,34.07
2016-05-08T11:48:25.803Z,34.7
2016-05-08T11:49:25.895Z,34.74
2016-05-08T11:50:26.002Z,34.54
2016-05-08T11:51:25.968Z,34.72
2016-05-08T11:52:26.184Z,35.08
2016-05-08T11:53:26.271Z,35.58
2016-05-08T11:54:26.398Z,36.29
2016-05-08T11:55:26.275Z,36.92
2016-05-08T11:56:26.496Z,37.58
2016-05-08T11:57:26.591Z,37.43
2016-05-08T11:58:26.883Z,37.04
2016-05-08T11:59:26.704Z,36.64
2016-05-08T12:00:26.743Z,36.31
2016-05-08T12:01:26.813Z,36.12
2016-05-08T12:02:26.884Z,35.72
2016-05-08T12:03:26.921Z,35.25
2016-05-08T12:04:26.988Z,34.56
2016-05-08T12:05:27.039Z,34.01
2016-05-08T12:06:27.137Z,33.39
2016-05-08T12:07:27.158Z,33.04
2016-05-08T12:08:27.239Z,33.31
2016-05-08T12:09:27.290Z,33.8
2016-05-08T12:10:27.184Z,34.51
2016-05-08T12:11:27.453Z,34.76
2016-05-08T12:12:27.457Z,35.23
2016-05-08T12:13:27.522Z,35.54
2016-05-08T12:14:27.570Z,35.97
2016-05-08T12:15:27.621Z,36.57
2016-05-08T12:16:27.530Z,37.21
2016-05-08T12:17:27.736Z,37.86
2016-05-08T12:18:27.675Z,37.98
2016-05-08T12:19:27.695Z,37.61
2016-05-08T12:20:27.932Z,37.05
2016-05-08T12:21:28.012Z,36.72
2016-05-08T12:22:28.031Z,36.26
2016-05-08T12:23:28.111Z,36.03
2016-05-08T12:24:28.177Z,35.77
2016-05-08T12:25:28.194Z,35.62
2016-05-08T12:26:28.244Z,35.32
2016-05-08T12:27:28.325Z,35.29
2016-05-08T12:28:28.109Z,35.32
2016-05-08T12:29:28.424Z,35.08
2016-05-08T12:30:28.489Z,34.8
2016-05-08T12:31:28.571Z,34.51
2016-05-08T12:32:28.604Z,34
2016-05-08T12:33:28.669Z,33.58
2016-05-08T12:34:28.734Z,33.29
2016-05-08T12:35:28.753Z,33.76
2016-05-08T12:36:28.803Z,34.27
2016-05-08T12:37:28.883Z,34.79
2016-05-08T12:38:28.808Z,35.06
2016-05-08T12:39:28.982Z,35.2
2016-05-08T12:40:29.063Z,35.32
2016-05-08T12:41:28.957Z,35.39
2016-05-08T12:42:29.178Z,35.58
2016-05-08T12:43:29.634Z,35.88
2016-05-08T12:44:29.277Z,35.79
2016-05-08T12:45:29.358Z,35.44
2016-05-08T12:46:29.392Z,34.95
2016-05-08T12:47:29.426Z,34.57
2016-05-08T12:48:29.491Z,34.13
2016-05-08T12:49:29.400Z,33.45
2016-05-08T12:50:29.605Z,33.04
2016-05-08T12:51:29.655Z,33.1
2016-05-08T12:52:29.753Z,33.13
2016-05-08T12:53:29.755Z,33.17
2016-05-08T12:54:29.820Z,33.26
2016-05-08T12:55:29.885Z,33.11
2016-05-08T12:56:29.934Z,33.2